Time;durP1;ratioP1;P1;durP2;ratioP2;P2;SDS_P1;SDS_P2;PMS_P1;PMS_P2;Temp;Humidity;BMP_temperature;BMP_pressure;BME280_temperature;BME280_humidity;BME280_pressure;Samples;Min_cycle;Max_cycle;Signal;HPM_P1;HPM_P2
2022/07/29 00:01:52;;;;;;;3.63;1.10;;;15.00;99.90;;;;;;6312382;28;20271;-68
2022/07/29 00:04:57;;;;;;;3.42;0.80;;;15.10;99.90;;;;;;6311512;28;20290;-68
2022/07/29 00:08:03;;;;;;;0.70;0.70;;;15.10;99.90;;;;;;6312021;28;20271;-67
2022/07/29 00:11:13;;;;;;;1.05;1.00;;;15.00;99.90;;;;;;6311614;28;20390;-67
2022/07/29 00:14:18;;;;;;;2.22;1.05;;;15.00;99.90;;;;;;6311491;28;20298;-67
2022/07/29 00:17:25;;;;;;;1.58;1.10;;;15.00;99.90;;;;;;6311891;28;20510;-67
2022/07/29 00:20:31;;;;;;;5.50;1.20;;;14.90;99.90;;;;;;6311389;28;20299;-68
2022/07/29 00:23:36;;;;;;;1.40;0.80;;;14.80;99.90;;;;;;6311539;28;20278;-67
2022/07/29 00:26:41;;;;;;;1.85;0.80;;;14.70;99.90;;;;;;6311773;28;20271;-69
2022/07/29 00:29:47;;;;;;;0.77;0.77;;;14.70;99.90;;;;;;6293367;28;20294;-69
2022/07/29 00:32:53;;;;;;;2.70;1.10;;;14.70;99.90;;;;;;6311409;28;20597;-67
2022/07/29 00:35:58;;;;;;;0.82;0.82;;;14.70;99.90;;;;;;6308873;28;20435;-67
2022/07/29 00:39:04;;;;;;;3.90;1.05;;;14.90;99.90;;;;;;6306182;28;20290;-67
2022/07/29 00:42:09;;;;;;;1.00;1.00;;;14.90;99.90;;;;;;6311154;28;20324;-68
2022/07/29 00:45:16;;;;;;;1.95;0.70;;;14.80;99.90;;;;;;6310581;28;20298;-68
2022/07/29 00:48:22;;;;;;;3.03;0.95;;;14.70;99.90;;;;;;6311506;28;20271;-67
2022/07/29 00:51:28;;;;;;;0.90;0.90;;;14.70;99.90;;;;;;6311545;28;20270;-68
2022/07/29 00:54:35;;;;;;;1.35;0.90;;;14.70;99.90;;;;;;6310977;28;20349;-67
2022/07/29 00:57:48;;;;;;;3.30;1.50;;;14.70;99.90;;;;;;6310919;28;20305;-68
2022/07/29 01:00:54;;;;;;;1.10;1.10;;;14.70;99.90;;;;;;6311294;28;20298;-67
2022/07/29 01:04:01;;;;;;;3.35;0.98;;;14.60;99.90;;;;;;6310868;28;20589;-68
2022/07/29 01:07:07;;;;;;;1.27;0.80;;;14.60;99.90;;;;;;6310521;28;20274;-68
2022/07/29 01:10:15;;;;;;;1.67;0.90;;;14.60;99.90;;;;;;6310856;28;20602;-67
2022/07/29 01:13:20;;;;;;;0.93;0.82;;;14.50;99.90;;;;;;6303124;28;20282;-67
2022/07/29 01:16:32;;;;;;;1.13;1.02;;;14.50;99.90;;;;;;6310857;28;20271;-67
2022/07/29 01:19:50;;;;;;;0.77;0.77;;;14.60;99.90;;;;;;6310236;28;20294;-67
2022/07/29 01:23:10;;;;;;;2.45;1.08;;;14.50;99.90;;;;;;6310816;28;20270;-67
2022/07/29 01:26:32;;;;;;;3.63;1.30;;;14.50;99.90;;;;;;6310297;28;20302;-68
2022/07/29 01:29:44;;;;;;;5.90;1.20;;;14.60;99.90;;;;;;6310291;28;20294;-67
2022/07/29 01:32:55;;;;;;;6.07;1.30;;;14.50;99.90;;;;;;6310617;28;20271;-67
2022/07/29 01:36:05;;;;;;;15.55;1.70;;;14.50;99.90;;;;;;6307255;28;20398;-67
2022/07/29 01:39:15;;;;;;;23.55;2.13;;;14.50;99.90;;;;;;6306436;28;20294;-67
2022/07/29 01:42:28;;;;;;;19.63;2.20;;;14.50;99.90;;;;;;6310961;28;20390;-67
2022/07/29 01:45:41;;;;;;;18.73;2.08;;;14.50;99.90;;;;;;6309876;28;20294;-67
2022/07/29 01:48:49;;;;;;;23.75;2.30;;;14.40;99.90;;;;;;6309640;28;20290;-67
2022/07/29 01:51:59;;;;;;;26.35;2.05;;;14.40;99.90;;;;;;6310337;28;20490;-67
2022/07/29 01:55:10;;;;;;;9.65;1.90;;;14.40;99.90;;;;;;6309461;28;20302;-67
2022/07/29 01:58:19;;;;;;;17.65;2.10;;;14.30;99.90;;;;;;6310530;28;20291;-67
2022/07/29 02:01:27;;;;;;;14.95;2.88;;;14.30;99.90;;;;;;6309538;28;20274;-67
2022/07/29 02:04:33;;;;;;;7.80;1.88;;;14.30;99.90;;;;;;6309878;28;20290;-67
2022/07/29 02:07:40;;;;;;;13.25;2.47;;;14.30;99.90;;;;;;6310382;28;20283;-67
2022/07/29 02:10:46;;;;;;;38.55;3.00;;;14.30;99.90;;;;;;6312973;28;20294;-67
2022/07/29 02:13:52;;;;;;;15.30;1.85;;;14.30;99.90;;;;;;6314475;28;20301;-67
2022/07/29 02:17:00;;;;;;;24.67;2.95;;;14.40;99.90;;;;;;6315226;28;20410;-67
2022/07/29 02:20:08;;;;;;;23.88;2.65;;;14.30;99.90;;;;;;6314203;28;20299;-67
2022/07/29 02:23:21;;;;;;;19.35;2.85;;;14.30;99.90;;;;;;6314407;28;20274;-67
2022/07/29 02:26:27;;;;;;;22.00;3.25;;;14.30;99.90;;;;;;6313695;28;20278;-67
2022/07/29 02:29:34;;;;;;;30.85;3.08;;;14.30;99.90;;;;;;6314715;28;20294;-67
2022/07/29 02:32:42;;;;;;;15.38;2.35;;;14.30;99.90;;;;;;6314738;28;20557;-67
2022/07/29 02:35:48;;;;;;;11.77;2.13;;;14.30;99.90;;;;;;6305684;28;20303;-68
2022/07/29 02:38:57;;;;;;;21.65;2.03;;;14.30;99.90;;;;;;6307026;28;20286;-68
2022/07/29 02:42:06;;;;;;;21.88;3.22;;;14.20;99.90;;;;;;6313899;28;20609;-68
2022/07/29 02:45:12;;;;;;;10.02;2.00;;;14.30;99.90;;;;;;6314484;28;20303;-67
2022/07/29 02:48:22;;;;;;;12.70;1.92;;;14.30;99.90;;;;;;6314174;28;20271;-68
2022/07/29 02:51:35;;;;;;;12.80;1.70;;;14.20;99.90;;;;;;6313245;28;20279;-67
2022/07/29 02:54:56;;;;;;;13.15;1.75;;;14.20;99.90;;;;;;6313564;28;20298;-67
2022/07/29 02:58:04;;;;;;;13.68;1.95;;;14.10;99.90;;;;;;6313798;28;20267;-68
2022/07/29 03:01:15;;;;;;;13.93;1.63;;;14.10;99.90;;;;;;6313107;28;20298;-67
2022/07/29 03:04:29;;;;;;;20.98;2.30;;;14.20;99.90;;;;;;6308352;28;20542;-67
2022/07/29 03:07:35;;;;;;;12.27;1.58;;;14.20;99.90;;;;;;6310636;28;20295;-67
2022/07/29 03:10:45;;;;;;;8.40;1.98;;;14.20;99.90;;;;;;6313516;28;20255;-67
2022/07/29 03:13:50;;;;;;;13.60;1.90;;;14.20;99.90;;;;;;6312899;28;20299;-68
2022/07/29 03:16:57;;;;;;;16.40;2.20;;;14.20;99.90;;;;;;6313084;28;20294;-67
2022/07/29 03:20:04;;;;;;;10.43;1.95;;;14.20;99.90;;;;;;6309323;28;20557;-67
2022/07/29 03:23:11;;;;;;;15.25;2.03;;;14.20;99.90;;;;;;6312865;28;20294;-67
2022/07/29 03:26:17;;;;;;;12.68;1.83;;;14.20;99.90;;;;;;6313340;28;20282;-67
2022/07/29 03:29:22;;;;;;;6.03;1.73;;;14.20;99.90;;;;;;6312666;28;20294;-67
2022/07/29 03:32:29;;;;;;;7.05;1.52;;;14.20;99.90;;;;;;6313067;28;20299;-67
2022/07/29 03:35:36;;;;;;;5.20;1.48;;;14.30;99.90;;;;;;6312827;28;20473;-67
2022/07/29 03:38:42;;;;;;;6.28;1.63;;;14.30;99.90;;;;;;6312471;28;20601;-67
2022/07/29 03:41:50;;;;;;;7.70;1.65;;;14.30;99.90;;;;;;6312506;28;20298;-67
2022/07/29 03:44:57;;;;;;;3.50;1.50;;;14.30;99.90;;;;;;6312876;28;20271;-67
2022/07/29 03:48:08;;;;;;;5.50;1.52;;;14.30;99.90;;;;;;6312017;28;20370;-68
2022/07/29 03:51:15;;;;;;;7.50;1.40;;;14.30;99.90;;;;;;6312637;28;20271;-67
2022/07/29 03:54:20;;;;;;;8.05;1.50;;;14.40;99.90;;;;;;6311812;28;20618;-67
2022/07/29 03:57:28;;;;;;;11.98;1.52;;;14.30;99.90;;;;;;6311713;28;20313;-67
2022/07/29 04:00:34;;;;;;;4.22;1.40;;;14.40;99.90;;;;;;6312236;28;20270;-67
2022/07/29 04:03:40;;;;;;;3.67;1.40;;;14.40;99.90;;;;;;6311920;28;20573;-67
2022/07/29 04:06:47;;;;;;;2.40;1.40;;;14.40;99.90;;;;;;6312238;28;20270;-67
2022/07/29 04:09:53;;;;;;;6.20;1.23;;;14.40;99.90;;;;;;6309207;28;20287;-67
2022/07/29 04:12:58;;;;;;;3.60;1.38;;;14.50;99.90;;;;;;6311507;28;20304;-67
2022/07/29 04:16:04;;;;;;;3.10;1.40;;;14.40;99.90;;;;;;6311619;28;20294;-67
2022/07/29 04:19:09;;;;;;;2.67;1.20;;;14.50;99.90;;;;;;6311798;28;20298;-67
2022/07/29 04:22:16;;;;;;;2.30;1.20;;;14.50;99.90;;;;;;6311483;28;20286;-68
2022/07/29 04:25:21;;;;;;;1.48;1.23;;;14.60;99.90;;;;;;6311792;28;20278;-67
2022/07/29 04:28:48;;;;;;;1.20;1.10;;;14.60;99.90;;;;;;6311975;28;20303;-68
2022/07/29 04:31:54;;;;;;;1.35;1.20;;;14.60;99.90;;;;;;6310424;28;20429;-67
2022/07/29 04:34:59;;;;;;;1.65;1.30;;;14.70;99.90;;;;;;6311804;28;20270;-67
2022/07/29 04:38:07;;;;;;;2.83;1.10;;;14.80;99.90;;;;;;6311008;28;20302;-67
2022/07/29 04:41:20;;;;;;;1.27;1.10;;;14.80;99.90;;;;;;6311372;28;20318;-67
2022/07/29 04:44:28;;;;;;;2.47;1.40;;;14.80;99.90;;;;;;6310474;28;20294;-68
2022/07/29 04:47:34;;;;;;;1.55;1.15;;;14.80;99.90;;;;;;6310425;28;20307;-68
2022/07/29 04:50:40;;;;;;;1.85;1.10;;;14.80;99.90;;;;;;6311277;28;20278;-68
2022/07/29 04:53:46;;;;;;;2.58;1.33;;;14.90;99.90;;;;;;6310798;28;20299;-67
2022/07/29 04:56:52;;;;;;;4.10;1.20;;;15.00;99.90;;;;;;6310172;28;20310;-67
2022/07/29 04:59:57;;;;;;;5.10;1.20;;;15.00;99.90;;;;;;6311150;28;20546;-67
2022/07/29 05:03:02;;;;;;;1.83;1.17;;;15.00;99.90;;;;;;6310597;28;20471;-67
2022/07/29 05:06:08;;;;;;;1.40;1.20;;;15.10;99.90;;;;;;6311496;28;20274;-67
2022/07/29 05:09:14;;;;;;;7.22;1.50;;;15.10;99.90;;;;;;6310365;28;20495;-67
2022/07/29 05:12:20;;;;;;;2.90;1.40;;;15.20;99.90;;;;;;6310663;28;20290;-67
2022/07/29 05:15:25;;;;;;;1.02;1.00;;;15.20;99.90;;;;;;6310441;28;20535;-68
2022/07/29 05:18:30;;;;;;;2.33;1.20;;;15.20;99.90;;;;;;6310154;28;20298;-68
2022/07/29 05:21:36;;;;;;;1.13;1.10;;;15.30;99.90;;;;;;6293483;28;20270;-69
2022/07/29 05:24:43;;;;;;;1.00;1.00;;;15.30;99.90;;;;;;6310974;28;20458;-68
2022/07/29 05:27:51;;;;;;;1.23;1.10;;;15.40;99.90;;;;;;6310418;28;20294;-69
2022/07/29 05:30:56;;;;;;;4.65;1.00;;;15.50;99.90;;;;;;6310450;28;20266;-69
2022/07/29 05:34:01;;;;;;;5.03;1.05;;;15.50;99.90;;;;;;6310027;28;20294;-67
2022/07/29 05:37:07;;;;;;;0.80;0.80;;;15.60;99.90;;;;;;6310422;28;20465;-68
2022/07/29 05:40:14;;;;;;;0.93;0.93;;;15.60;99.90;;;;;;6309985;28;20298;-68
2022/07/29 05:43:20;;;;;;;1.13;1.13;;;15.70;99.90;;;;;;6310178;28;20290;-68
2022/07/29 05:46:25;;;;;;;2.30;0.98;;;15.80;99.90;;;;;;6314658;28;20270;-68
2022/07/29 05:49:31;;;;;;;2.47;1.30;;;15.80;99.90;;;;;;6314698;28;20594;-68
2022/07/29 05:52:36;;;;;;;5.20;1.30;;;16.10;99.90;;;;;;6315001;28;20637;-68
2022/07/29 05:55:43;;;;;;;2.17;1.10;;;16.20;99.90;;;;;;6315077;28;20578;-68
2022/07/29 05:58:48;;;;;;;1.05;1.00;;;16.40;99.90;;;;;;6314490;28;20489;-67
2022/07/29 06:01:53;;;;;;;0.73;0.73;;;16.60;99.90;;;;;;6314775;28;20274;-68
2022/07/29 06:04:59;;;;;;;1.58;0.80;;;16.80;99.90;;;;;;6314836;28;20274;-68
2022/07/29 06:08:06;;;;;;;0.88;0.88;;;17.00;99.90;;;;;;6314407;28;20463;-68
2022/07/29 06:11:13;;;;;;;2.13;0.80;;;17.20;99.90;;;;;;6313156;28;20267;-68
2022/07/29 06:14:19;;;;;;;1.20;0.95;;;17.30;99.90;;;;;;6314618;28;20294;-68
2022/07/29 06:17:25;;;;;;;0.90;0.90;;;17.50;99.90;;;;;;6314535;28;20462;-68
2022/07/29 06:20:30;;;;;;;1.00;1.00;;;17.60;99.90;;;;;;6314618;28;20298;-68
2022/07/29 06:23:38;;;;;;;0.90;0.90;;;17.70;99.90;;;;;;6314328;28;20463;-68
2022/07/29 06:26:44;;;;;;;1.33;0.85;;;17.90;99.90;;;;;;6314422;28;20270;-68
2022/07/29 06:29:50;;;;;;;1.40;0.70;;;18.10;99.90;;;;;;6313571;28;20306;-68
2022/07/29 06:32:55;;;;;;;1.55;0.88;;;18.20;99.20;;;;;;6314017;28;20289;-68
2022/07/29 06:36:00;;;;;;;0.60;0.60;;;18.20;98.60;;;;;;6314424;28;20275;-68
2022/07/29 06:39:07;;;;;;;0.57;0.57;;;18.30;97.00;;;;;;6313810;28;20298;-68
2022/07/29 06:42:14;;;;;;;0.50;0.50;;;18.50;95.80;;;;;;6294139;28;20294;-68
2022/07/29 06:45:19;;;;;;;0.60;0.60;;;18.60;95.10;;;;;;6312382;28;20271;-68
2022/07/29 06:48:24;;;;;;;0.60;0.60;;;18.70;96.00;;;;;;6312361;28;20307;-68
2022/07/29 06:51:30;;;;;;;0.90;0.90;;;18.60;95.30;;;;;;6312358;28;20458;-68
2022/07/29 06:54:35;;;;;;;1.35;0.52;;;18.70;94.30;;;;;;6311614;28;20558;-68
2022/07/29 06:57:41;;;;;;;0.57;0.57;;;18.70;94.20;;;;;;6311810;28;20578;-68
2022/07/29 07:00:47;;;;;;;0.70;0.70;;;18.80;93.40;;;;;;6312391;28;20270;-68
2022/07/29 07:03:52;;;;;;;0.60;0.60;;;18.90;92.20;;;;;;6311868;28;20294;-68
2022/07/29 07:06:59;;;;;;;0.60;0.60;;;18.90;93.80;;;;;;6311843;28;20550;-68
2022/07/29 07:10:05;;;;;;;0.73;0.73;;;19.00;93.20;;;;;;6312625;28;20446;-68
2022/07/29 07:13:16;;;;;;;0.70;0.70;;;19.20;91.40;;;;;;6311707;28;20617;-68
2022/07/29 07:16:22;;;;;;;0.75;0.75;;;19.30;91.30;;;;;;6311871;28;20272;-68
2022/07/29 07:19:28;;;;;;;0.75;0.75;;;19.30;92.00;;;;;;6311499;28;20480;-68
2022/07/29 07:22:33;;;;;;;0.90;0.65;;;19.40;91.50;;;;;;6311251;28;20290;-68
2022/07/29 07:25:43;;;;;;;0.80;0.80;;;19.50;91.70;;;;;;6312090;28;20271;-68
2022/07/29 07:28:49;;;;;;;0.70;0.70;;;19.50;91.20;;;;;;6311804;28;20367;-68
2022/07/29 07:31:54;;;;;;;0.80;0.80;;;19.60;91.40;;;;;;6311883;28;20271;-68
2022/07/29 07:35:07;;;;;;;0.60;0.60;;;19.70;91.40;;;;;;6311986;28;20551;-68
2022/07/29 07:38:14;;;;;;;1.02;0.70;;;19.70;90.30;;;;;;6311277;28;20302;-67
2022/07/29 07:41:20;;;;;;;0.60;0.60;;;19.70;88.40;;;;;;6271644;28;1143403;-67
2022/07/29 07:44:26;;;;;;;0.63;0.63;;;19.70;90.30;;;;;;6312569;27;20386;-67
2022/07/29 07:47:32;;;;;;;0.80;0.80;;;19.70;86.30;;;;;;6312645;28;20305;-67
2022/07/29 07:50:38;;;;;;;0.60;0.60;;;19.80;87.40;;;;;;6312744;28;20274;-67
2022/07/29 07:53:44;;;;;;;0.60;0.60;;;19.70;87.20;;;;;;6312162;28;20315;-67
2022/07/29 07:56:50;;;;;;;0.70;0.70;;;19.80;84.20;;;;;;6312294;28;20270;-67
2022/07/29 07:59:58;;;;;;;1.40;0.70;;;19.70;83.90;;;;;;6312517;28;20290;-67
2022/07/29 08:03:04;;;;;;;0.50;0.50;;;19.90;85.30;;;;;;6312173;28;20290;-67
2022/07/29 08:06:20;;;;;;;0.70;0.70;;;20.00;85.20;;;;;;6311999;28;20275;-67
2022/07/29 08:09:28;;;;;;;0.70;0.70;;;20.10;84.10;;;;;;6311785;28;20298;-67
2022/07/29 08:12:34;;;;;;;0.75;0.70;;;20.10;84.80;;;;;;6311256;28;20290;-68
2022/07/29 08:15:42;;;;;;;2.78;0.50;;;20.10;85.80;;;;;;6311785;28;20270;-67
2022/07/29 08:18:48;;;;;;;0.60;0.60;;;20.10;82.80;;;;;;6311799;28;20299;-67
2022/07/29 08:21:54;;;;;;;0.70;0.70;;;20.00;82.60;;;;;;6310985;28;20266;-67
2022/07/29 08:24:59;;;;;;;1.70;0.70;;;20.10;83.30;;;;;;6312297;28;20453;-67
2022/07/29 08:28:06;;;;;;;0.60;0.60;;;20.00;82.10;;;;;;6311086;28;20673;-67
2022/07/29 08:31:14;;;;;;;0.60;0.60;;;19.90;82.50;;;;;;6312085;28;20274;-67
2022/07/29 08:34:20;;;;;;;0.80;0.80;;;19.90;81.70;;;;;;6310631;28;20294;-67
2022/07/29 08:37:32;;;;;;;0.60;0.60;;;19.80;83.30;;;;;;6311146;28;20582;-67
2022/07/29 08:40:37;;;;;;;0.85;0.70;;;20.00;81.70;;;;;;6311108;28;20310;-67
2022/07/29 08:43:42;;;;;;;0.70;0.70;;;20.00;82.20;;;;;;6310899;28;20618;-68
2022/07/29 08:46:50;;;;;;;2.20;0.50;;;20.00;81.90;;;;;;6310701;28;20277;-67
2022/07/29 08:49:55;;;;;;;0.95;0.60;;;19.90;82.30;;;;;;6310976;28;20320;-67
2022/07/29 08:53:00;;;;;;;3.60;0.70;;;19.90;83.90;;;;;;6310374;28;20294;-68
2022/07/29 08:56:06;;;;;;;0.70;0.70;;;20.00;83.40;;;;;;6310926;28;20433;-67
2022/07/29 08:59:14;;;;;;;0.80;0.80;;;20.10;83.60;;;;;;6310286;28;20476;-68
2022/07/29 09:02:23;;;;;;;0.70;0.70;;;20.10;81.90;;;;;;6310387;28;20589;-68
2022/07/29 09:05:29;;;;;;;0.70;0.70;;;20.10;82.10;;;;;;6311077;28;20554;-68
2022/07/29 09:08:35;;;;;;;0.80;0.80;;;20.10;83.00;;;;;;6310627;28;20302;-68
2022/07/29 09:11:41;;;;;;;1.15;0.68;;;20.20;83.90;;;;;;6310421;28;20456;-68
2022/07/29 09:14:46;;;;;;;1.10;1.10;;;20.30;83.20;;;;;;6309960;28;20302;-68
2022/07/29 09:17:53;;;;;;;0.85;0.85;;;20.30;83.70;;;;;;6310114;28;20294;-68
2022/07/29 09:24:44;;;;;;;1.08;1.08;;;20.20;83.30;;;;;;6185361;28;20302;-67
2022/07/29 09:27:51;;;;;;;0.90;0.90;;;20.20;82.30;;;;;;6310211;28;20290;-67
2022/07/29 09:30:59;;;;;;;0.73;0.73;;;20.20;82.20;;;;;;6310400;28;20337;-67
2022/07/29 09:34:06;;;;;;;0.70;0.70;;;20.20;81.90;;;;;;6310541;28;20302;-67
2022/07/29 09:37:11;;;;;;;5.93;0.95;;;20.30;82.40;;;;;;6309161;28;20298;-67
2022/07/29 09:40:19;;;;;;;2.05;0.70;;;20.20;83.20;;;;;;6310239;28;20301;-67
2022/07/29 09:43:25;;;;;;;0.75;0.75;;;20.20;83.20;;;;;;6309547;28;20485;-68
2022/07/29 09:46:30;;;;;;;0.63;0.63;;;20.20;82.10;;;;;;6310888;28;20270;-68
2022/07/29 09:49:52;;;;;;;0.70;0.70;;;20.20;81.00;;;;;;6309359;28;20298;-67
2022/07/29 09:52:57;;;;;;;1.13;0.80;;;20.20;84.80;;;;;;6308612;28;20290;-67
2022/07/29 09:56:02;;;;;;;0.85;0.85;;;20.40;82.40;;;;;;6309211;28;20586;-67
2022/07/29 09:59:08;;;;;;;0.85;0.85;;;20.50;81.50;;;;;;6309354;28;20302;-67
2022/07/29 10:02:15;;;;;;;0.95;0.95;;;20.60;88.00;;;;;;6309130;28;20290;-67
2022/07/29 10:05:28;;;;;;;2.75;0.90;;;20.60;83.10;;;;;;6310182;28;20267;-67
2022/07/29 10:08:43;;;;;;;1.08;1.00;;;20.70;84.80;;;;;;6309659;28;20298;-68
2022/07/29 10:12:08;;;;;;;0.80;0.80;;;20.70;81.90;;;;;;6307354;28;20582;-66
2022/07/29 10:15:14;;;;;;;3.30;0.95;;;20.70;81.30;;;;;;6310128;28;20270;-67
2022/07/29 10:18:19;;;;;;;0.90;0.90;;;20.70;80.20;;;;;;6309478;28;20290;-68
2022/07/29 10:21:26;;;;;;;1.00;1.00;;;20.80;79.40;;;;;;6310156;28;20581;-68
2022/07/29 10:24:40;;;;;;;1.75;0.80;;;20.80;79.00;;;;;;6309605;28;20574;-68
2022/07/29 10:27:47;;;;;;;0.80;0.80;;;20.90;80.70;;;;;;6309533;28;20290;-68
2022/07/29 10:30:59;;;;;;;1.45;0.93;;;21.10;80.70;;;;;;6311731;28;20274;-68
2022/07/29 10:34:11;;;;;;;1.95;1.90;;;21.20;80.90;;;;;;6314132;28;20582;-68
2022/07/29 10:37:25;;;;;;;1.90;1.90;;;21.20;79.80;;;;;;6314160;28;20299;-68
2022/07/29 10:44:17;;;;;;;1.45;0.82;;;21.00;81.20;;;;;;6278725;28;20295;-68
2022/07/29 10:47:25;;;;;;;0.98;0.70;;;21.10;79.20;;;;;;6313846;28;20286;-68
2022/07/29 10:50:55;;;;;;;0.80;0.80;;;21.10;79.30;;;;;;6314064;28;20588;-69
2022/07/29 10:54:05;;;;;;;0.77;0.77;;;21.10;79.90;;;;;;6313733;28;20293;-68
2022/07/29 10:57:14;;;;;;;1.05;0.70;;;21.20;79.20;;;;;;6313379;28;20286;-68
2022/07/29 11:00:33;;;;;;;1.65;0.90;;;21.10;76.90;;;;;;6313912;28;20271;-67
2022/07/29 11:03:48;;;;;;;0.80;0.80;;;21.10;76.40;;;;;;6313469;28;20482;-67
2022/07/29 11:07:10;;;;;;;1.58;1.27;;;21.20;77.60;;;;;;6313349;28;20266;-67
2022/07/29 11:10:26;;;;;;;0.80;0.80;;;21.20;76.60;;;;;;6313637;28;20267;-67
2022/07/29 11:13:56;;;;;;;0.95;0.95;;;21.20;77.00;;;;;;6313216;28;20570;-67
2022/07/29 11:17:05;;;;;;;0.75;0.75;;;21.30;78.80;;;;;;6309978;28;20271;-67
2022/07/29 11:20:35;;;;;;;3.13;1.27;;;21.30;78.10;;;;;;6313990;28;20271;-67
2022/07/29 11:23:43;;;;;;;1.02;1.02;;;21.30;76.40;;;;;;6312847;28;20297;-68
2022/07/29 11:27:16;;;;;;;2.17;1.00;;;21.30;79.20;;;;;;6312644;28;20566;-68
2022/07/29 11:30:51;;;;;;;2.70;1.25;;;21.30;79.10;;;;;;6312715;28;20463;-68
2022/07/29 11:33:57;;;;;;;1.00;1.00;;;21.30;77.50;;;;;;6312715;28;20610;-69
2022/07/29 11:37:22;;;;;;;0.90;0.90;;;21.30;75.60;;;;;;6312274;28;20290;-67
2022/07/29 11:40:32;;;;;;;0.82;0.82;;;21.40;76.90;;;;;;6312826;28;20294;-68
2022/07/29 11:43:52;;;;;;;0.80;0.80;;;21.30;76.80;;;;;;6311264;28;20302;-68
2022/07/29 11:46:58;;;;;;;1.20;1.10;;;21.30;77.00;;;;;;6312245;28;20266;-67
2022/07/29 11:50:06;;;;;;;0.90;0.90;;;21.20;76.10;;;;;;6312513;28;20571;-67
2022/07/29 11:53:15;;;;;;;0.80;0.80;;;21.10;75.50;;;;;;6312675;28;20326;-67
2022/07/29 11:56:22;;;;;;;1.70;1.60;;;21.10;76.20;;;;;;6312134;28;20271;-67
2022/07/29 11:59:31;;;;;;;0.80;0.80;;;21.10;76.30;;;;;;6311828;28;20301;-68
2022/07/29 12:02:43;;;;;;;0.75;0.75;;;21.20;75.70;;;;;;6311433;28;20297;-67
2022/07/29 12:05:52;;;;;;;2.85;0.80;;;21.30;78.20;;;;;;6312558;28;20270;-68
2022/07/29 12:09:01;;;;;;;1.00;1.00;;;21.30;76.40;;;;;;6311743;28;20290;-67
2022/07/29 12:12:11;;;;;;;0.70;0.70;;;21.30;73.20;;;;;;6309354;28;20298;-67
2022/07/29 12:15:20;;;;;;;0.73;0.73;;;21.40;73.90;;;;;;6312143;28;20270;-68
2022/07/29 12:18:27;;;;;;;0.73;0.73;;;21.50;72.60;;;;;;6311633;28;20475;-68
2022/07/29 12:21:45;;;;;;;3.00;0.90;;;21.50;73.50;;;;;;6311911;28;20309;-68
2022/07/29 12:25:04;;;;;;;0.82;0.70;;;21.50;74.00;;;;;;6310969;28;20274;-67
2022/07/29 12:28:29;;;;;;;0.90;0.75;;;21.50;73.00;;;;;;6311891;28;20289;-67
2022/07/29 12:31:36;;;;;;;1.20;1.20;;;21.50;73.40;;;;;;6311360;28;20578;-67
2022/07/29 12:34:48;;;;;;;0.90;0.90;;;21.40;71.60;;;;;;6310887;28;20278;-67
2022/07/29 12:37:54;;;;;;;1.02;1.02;;;21.40;69.80;;;;;;6310761;28;20486;-67
2022/07/29 12:41:00;;;;;;;1.60;1.60;;;21.50;71.80;;;;;;6311527;28;20471;-67
2022/07/29 12:44:08;;;;;;;0.98;0.98;;;21.60;72.90;;;;;;6310661;28;20485;-68
2022/07/29 12:47:15;;;;;;;9.07;1.48;;;21.60;69.10;;;;;;6310893;28;20488;-68
2022/07/29 12:50:20;;;;;;;6.43;1.35;;;21.70;71.50;;;;;;6311390;28;20266;-68
2022/07/29 12:53:30;;;;;;;0.95;0.95;;;21.80;72.50;;;;;;6310199;28;20481;-68
2022/07/29 12:56:35;;;;;;;0.68;0.68;;;21.70;75.60;;;;;;6310768;28;20266;-68
2022/07/29 13:00:09;;;;;;;0.70;0.70;;;21.80;70.40;;;;;;6310476;28;20270;-68
2022/07/29 13:03:19;;;;;;;0.90;0.90;;;21.90;68.10;;;;;;6310416;28;20294;-68
2022/07/29 13:06:39;;;;;;;0.80;0.80;;;22.00;68.10;;;;;;6310812;28;20337;-68
2022/07/29 13:10:14;;;;;;;0.70;0.70;;;22.10;66.30;;;;;;6309979;28;20283;-68
2022/07/29 13:13:19;;;;;;;2.88;2.78;;;22.20;66.10;;;;;;6310260;28;20298;-68
2022/07/29 13:16:24;;;;;;;2.25;1.60;;;22.20;65.80;;;;;;6310912;28;20274;-68
2022/07/29 13:19:40;;;;;;;1.38;1.27;;;22.30;65.90;;;;;;6310274;28;20294;-68
2022/07/29 13:22:49;;;;;;;1.10;1.00;;;22.40;65.30;;;;;;6309971;28;20299;-68
2022/07/29 13:25:54;;;;;;;1.00;1.00;;;22.50;65.30;;;;;;6310799;28;20266;-68
2022/07/29 13:28:59;;;;;;;5.22;1.20;;;22.40;65.10;;;;;;6310292;28;20297;-67
2022/07/29 13:32:05;;;;;;;3.10;1.13;;;22.50;65.80;;;;;;6310313;28;20266;-68
2022/07/29 13:35:13;;;;;;;2.63;0.88;;;22.70;64.90;;;;;;6310742;28;20460;-67
2022/07/29 13:38:18;;;;;;;0.70;0.70;;;22.60;64.10;;;;;;6292260;28;20290;-67
2022/07/29 13:41:23;;;;;;;0.70;0.70;;;22.60;64.00;;;;;;6310563;28;20294;-67
2022/07/29 13:44:29;;;;;;;1.05;0.90;;;22.60;65.80;;;;;;6309941;28;20305;-67
2022/07/29 13:47:35;;;;;;;0.90;0.90;;;23.40;64.20;;;;;;6310112;28;20289;-68
2022/07/29 13:50:41;;;;;;;4.32;1.27;;;23.70;66.60;;;;;;6310688;28;20649;-68
2022/07/29 13:53:47;;;;;;;1.00;1.00;;;23.70;66.50;;;;;;6310514;28;20297;-68
2022/07/29 13:56:52;;;;;;;0.95;0.88;;;23.50;60.30;;;;;;6309659;28;20275;-68
2022/07/29 13:59:58;;;;;;;0.80;0.80;;;23.50;61.10;;;;;;6310207;28;20275;-68
2022/07/29 14:03:03;;;;;;;1.65;0.80;;;23.60;61.00;;;;;;6310351;28;20290;-68
2022/07/29 14:06:13;;;;;;;1.45;0.60;;;23.50;60.70;;;;;;6312311;28;20275;-67
2022/07/29 14:09:18;;;;;;;1.35;1.20;;;23.60;62.00;;;;;;6314630;28;20302;-68
2022/07/29 14:12:24;;;;;;;1.35;0.90;;;23.50;62.10;;;;;;6312539;28;20347;-68
2022/07/29 14:15:29;;;;;;;0.88;0.88;;;23.60;64.10;;;;;;6315204;28;20278;-68
2022/07/29 14:18:34;;;;;;;0.90;0.90;;;23.50;60.80;;;;;;6314417;28;20298;-67
2022/07/29 14:21:41;;;;;;;1.17;0.90;;;23.60;65.80;;;;;;6314457;28;20279;-68
2022/07/29 14:24:49;;;;;;;1.15;0.60;;;23.80;71.80;;;;;;6314515;28;20298;-68
2022/07/29 14:27:55;;;;;;;0.80;0.80;;;24.00;73.70;;;;;;6314522;28;20585;-68
2022/07/29 14:31:02;;;;;;;0.80;0.80;;;23.70;75.50;;;;;;6314329;28;20267;-68
2022/07/29 14:34:09;;;;;;;1.27;0.70;;;23.60;75.90;;;;;;6314344;28;20302;-68
2022/07/29 14:37:17;;;;;;;0.60;0.60;;;23.60;75.80;;;;;;6313763;28;20290;-68
2022/07/29 14:40:22;;;;;;;3.20;0.80;;;23.70;76.20;;;;;;6314380;28;20302;-68
2022/07/29 14:43:27;;;;;;;0.95;0.90;;;23.40;75.20;;;;;;6313989;28;20294;-68
2022/07/29 14:46:32;;;;;;;0.70;0.65;;;23.50;75.80;;;;;;6314361;28;20270;-68
2022/07/29 14:49:38;;;;;;;0.80;0.80;;;23.60;77.30;;;;;;6313767;28;20599;-68
2022/07/29 14:52:45;;;;;;;0.98;0.90;;;23.60;74.20;;;;;;6313898;28;20290;-68
2022/07/29 14:55:50;;;;;;;0.60;0.60;;;23.60;74.80;;;;;;6314241;28;20275;-68
2022/07/29 14:58:55;;;;;;;0.82;0.82;;;23.80;75.80;;;;;;6313653;28;20311;-68
2022/07/29 15:02:01;;;;;;;2.72;0.80;;;23.80;76.50;;;;;;6313500;28;20582;-68
2022/07/29 15:05:08;;;;;;;0.70;0.70;;;23.50;77.40;;;;;;6314075;28;20302;-68
2022/07/29 15:08:14;;;;;;;1.58;0.70;;;23.50;77.80;;;;;;6313595;28;20290;-68
2022/07/29 15:11:19;;;;;;;2.47;0.60;;;23.30;78.10;;;;;;6313288;28;20267;-68
2022/07/29 15:14:25;;;;;;;0.60;0.60;;;23.20;78.40;;;;;;6312874;28;20303;-67
2022/07/29 15:17:30;;;;;;;0.82;0.82;;;23.00;79.80;;;;;;6312894;28;20295;-68
2022/07/29 15:20:35;;;;;;;0.70;0.70;;;22.80;81.20;;;;;;6312682;28;20270;-68
2022/07/29 15:23:42;;;;;;;0.73;0.73;;;22.80;81.10;;;;;;6312917;28;20303;-68
2022/07/29 15:26:48;;;;;;;0.65;0.65;;;22.80;81.50;;;;;;6313172;28;20290;-68
2022/07/29 15:29:53;;;;;;;7.20;1.20;;;22.80;82.20;;;;;;6312164;28;20267;-67
2022/07/29 15:32:58;;;;;;;1.52;0.65;;;23.00;82.20;;;;;;6312683;28;20286;-67
2022/07/29 15:36:05;;;;;;;0.73;0.73;;;22.90;82.30;;;;;;6312581;28;20274;-67
2022/07/29 15:39:11;;;;;;;0.63;0.63;;;22.80;83.80;;;;;;6312878;28;20299;-67
2022/07/29 15:42:16;;;;;;;1.30;0.60;;;22.80;84.80;;;;;;6312495;28;20294;-67
2022/07/29 15:45:22;;;;;;;0.70;0.70;;;22.80;84.20;;;;;;6312490;28;20476;-67
2022/07/29 15:48:27;;;;;;;2.90;0.70;;;22.90;84.30;;;;;;6311719;28;20298;-67
2022/07/29 15:51:33;;;;;;;0.80;0.80;;;22.90;84.60;;;;;;6312568;28;20291;-67
2022/07/29 15:54:40;;;;;;;0.95;0.95;;;22.80;87.80;;;;;;6312710;28;20306;-67
2022/07/29 15:57:47;;;;;;;1.55;1.10;;;22.50;86.90;;;;;;6311564;28;20486;-67
2022/07/29 16:00:52;;;;;;;0.70;0.70;;;22.50;88.10;;;;;;6311985;28;20274;-67
2022/07/29 16:03:58;;;;;;;2.83;1.45;;;22.30;88.60;;;;;;6294129;28;20472;-66
2022/07/29 16:07:04;;;;;;;4.70;4.30;;;22.50;89.30;;;;;;6311916;28;20310;-67
2022/07/29 16:10:11;;;;;;;1.75;1.60;;;22.50;88.70;;;;;;6310388;28;20263;-67
2022/07/29 16:13:17;;;;;;;1.10;1.10;;;22.60;89.00;;;;;;6311410;28;20481;-67
2022/07/29 16:16:24;;;;;;;1.80;1.33;;;22.40;89.50;;;;;;6311818;28;20274;-67
2022/07/29 16:19:30;;;;;;;1.17;1.17;;;22.50;87.10;;;;;;6311384;28;20314;-67
2022/07/29 16:22:35;;;;;;;0.80;0.80;;;22.40;87.60;;;;;;6311420;28;20310;-67
2022/07/29 16:25:42;;;;;;;1.05;1.05;;;22.40;83.90;;;;;;6311443;28;20290;-67